sensor_id;sensor_type;location;lat;lon;timestamp;pressure;altitude;pressure_sealevel;temperature;humidity
55733;BME280;41637;52.364;9.910;2023-04-15T00:01:45;100165.02;;;6.40;90.82
55733;BME280;41637;52.364;9.910;2023-04-15T00:04:13;100167.95;;;6.42;90.77
55733;BME280;41637;52.364;9.910;2023-04-15T00:06:39;100164.95;;;6.44;90.68
55733;BME280;41637;52.364;9.910;2023-04-15T00:09:07;100165.79;;;6.48;90.54
55733;BME280;41637;52.364;9.910;2023-04-15T00:11:33;100164.52;;;6.48;90.61
55733;BME280;41637;52.364;9.910;2023-04-15T00:14:00;100160.19;;;6.49;90.36
55733;BME280;41637;52.364;9.910;2023-04-15T00:16:27;100156.35;;;6.49;90.46
55733;BME280;41637;52.364;9.910;2023-04-15T00:18:53;100151.52;;;6.48;90.63
55733;BME280;41637;52.364;9.910;2023-04-15T00:21:20;100146.70;;;6.47;90.94
55733;BME280;41637;52.364;9.910;2023-04-15T00:23:47;100146.46;;;6.46;90.87
55733;BME280;41637;52.364;9.910;2023-04-15T00:26:18;100145.59;;;6.46;90.82
55733;BME280;41637;52.364;9.910;2023-04-15T00:28:45;100146.05;;;6.45;90.91
55733;BME280;41637;52.364;9.910;2023-04-15T00:31:12;100146.94;;;6.45;90.51
55733;BME280;41637;52.364;9.910;2023-04-15T00:33:39;100138.02;;;6.44;91.03
55733;BME280;41637;52.364;9.910;2023-04-15T00:36:06;100134.86;;;6.44;91.22
55733;BME280;41637;52.364;9.910;2023-04-15T00:38:33;100135.30;;;6.43;91.07
55733;BME280;41637;52.364;9.910;2023-04-15T00:41:00;100136.52;;;6.44;91.53
55733;BME280;41637;52.364;9.910;2023-04-15T00:43:27;100135.02;;;6.43;91.53
55733;BME280;41637;52.364;9.910;2023-04-15T00:45:55;100133.73;;;6.43;91.59
55733;BME280;41637;52.364;9.910;2023-04-15T00:48:25;100132.38;;;6.44;91.57
55733;BME280;41637;52.364;9.910;2023-04-15T00:50:52;100132.20;;;6.46;91.61
55733;BME280;41637;52.364;9.910;2023-04-15T00:53:18;100131.36;;;6.46;91.69
55733;BME280;41637;52.364;9.910;2023-04-15T00:55:45;100131.80;;;6.47;91.66
55733;BME280;41637;52.364;9.910;2023-04-15T00:58:12;100133.02;;;6.48;91.85
55733;BME280;41637;52.364;9.910;2023-04-15T01:00:38;100131.61;;;6.50;91.62
55733;BME280;41637;52.364;9.910;2023-04-15T01:03:06;100131.80;;;6.53;91.70
55733;BME280;41637;52.364;9.910;2023-04-15T01:05:33;100129.27;;;6.55;91.71
55733;BME280;41637;52.364;9.910;2023-04-15T01:08:00;100125.69;;;6.55;91.67
55733;BME280;41637;52.364;9.910;2023-04-15T01:10:27;100123.24;;;6.57;91.65
55733;BME280;41637;52.364;9.910;2023-04-15T01:12:53;100120.64;;;6.56;91.82
55733;BME280;41637;52.364;9.910;2023-04-15T01:15:20;100116.39;;;6.57;91.95
55733;BME280;41637;52.364;9.910;2023-04-15T01:17:47;100115.90;;;6.56;91.82
55733;BME280;41637;52.364;9.910;2023-04-15T02:21:26;100089.11;;;6.96;93.01
55733;BME280;41637;52.364;9.910;2023-04-15T02:23:53;100082.63;;;6.94;93.14
55733;BME280;41637;52.364;9.910;2023-04-15T02:26:19;100081.51;;;6.93;93.08
55733;BME280;41637;52.364;9.910;2023-04-15T02:28:47;100077.92;;;6.92;93.04
55733;BME280;41637;52.364;9.910;2023-04-15T02:31:14;100079.46;;;6.91;93.25
55733;BME280;41637;52.364;9.910;2023-04-15T02:33:41;100082.77;;;6.90;93.33
55733;BME280;41637;52.364;9.910;2023-04-15T02:36:07;100081.31;;;6.87;93.85
55733;BME280;41637;52.364;9.910;2023-04-15T02:38:35;100087.73;;;6.88;93.58
55733;BME280;41637;52.364;9.910;2023-04-15T02:41:03;100090.87;;;6.88;93.78
55733;BME280;41637;52.364;9.910;2023-04-15T02:43:30;100093.80;;;6.88;93.88
55733;BME280;41637;52.364;9.910;2023-04-15T02:45:56;100090.20;;;6.87;93.75
55733;BME280;41637;52.364;9.910;2023-04-15T02:48:23;100089.16;;;6.89;94.41
55733;BME280;41637;52.364;9.910;2023-04-15T02:50:50;100089.85;;;6.89;94.18
55733;BME280;41637;52.364;9.910;2023-04-15T02:53:17;100092.58;;;6.90;94.26
55733;BME280;41637;52.364;9.910;2023-04-15T02:55:45;100094.95;;;6.91;94.49
55733;BME280;41637;52.364;9.910;2023-04-15T02:58:11;100100.48;;;6.91;94.33
55733;BME280;41637;52.364;9.910;2023-04-15T03:00:38;100100.06;;;6.92;94.60
55733;BME280;41637;52.364;9.910;2023-04-15T03:03:05;100098.92;;;6.93;94.39
55733;BME280;41637;52.364;9.910;2023-04-15T03:05:32;100095.88;;;6.93;94.81
55733;BME280;41637;52.364;9.910;2023-04-15T03:07:58;100096.50;;;6.94;94.63
55733;BME280;41637;52.364;9.910;2023-04-15T03:10:26;100094.79;;;6.94;94.75
55733;BME280;41637;52.364;9.910;2023-04-15T03:12:53;100093.94;;;6.94;94.82
55733;BME280;41637;52.364;9.910;2023-04-15T03:15:20;100101.75;;;6.93;94.77
55733;BME280;41637;52.364;9.910;2023-04-15T03:17:46;100098.15;;;6.93;94.89
55733;BME280;41637;52.364;9.910;2023-04-15T03:20:15;100097.75;;;6.92;94.86
55733;BME280;41637;52.364;9.910;2023-04-15T03:22:42;100096.02;;;6.90;95.09
55733;BME280;41637;52.364;9.910;2023-04-15T03:25:08;100096.31;;;6.86;95.40
55733;BME280;41637;52.364;9.910;2023-04-15T03:27:36;100094.73;;;6.80;95.98
55733;BME280;41637;52.364;9.910;2023-04-15T03:30:03;100092.42;;;6.77;96.09
55733;BME280;41637;52.364;9.910;2023-04-15T03:32:30;100094.59;;;6.71;96.55
55733;BME280;41637;52.364;9.910;2023-04-15T03:34:57;100093.12;;;6.67;97.13
55733;BME280;41637;52.364;9.910;2023-04-15T03:37:23;100092.72;;;6.64;97.17
55733;BME280;41637;52.364;9.910;2023-04-15T03:39:50;100090.64;;;6.61;97.43
55733;BME280;41637;52.364;9.910;2023-04-15T03:42:17;100097.00;;;6.57;97.91
55733;BME280;41637;52.364;9.910;2023-04-15T03:44:44;100092.88;;;6.55;98.30
55733;BME280;41637;52.364;9.910;2023-04-15T03:47:10;100099.77;;;6.52;98.45
55733;BME280;41637;52.364;9.910;2023-04-15T03:49:37;100091.23;;;6.50;98.67
55733;BME280;41637;52.364;9.910;2023-04-15T03:52:04;100092.58;;;6.47;99.06
55733;BME280;41637;52.364;9.910;2023-04-15T03:54:31;100092.17;;;6.46;99.11
55733;BME280;41637;52.364;9.910;2023-04-15T03:56:58;100093.10;;;6.44;99.62
55733;BME280;41637;52.364;9.910;2023-04-15T03:59:24;100095.83;;;6.45;99.75
55733;BME280;41637;52.364;9.910;2023-04-15T04:01:51;100095.17;;;6.46;99.61
55733;BME280;41637;52.364;9.910;2023-04-15T04:04:18;100097.46;;;6.47;99.69
55733;BME280;41637;52.364;9.910;2023-04-15T04:06:45;100098.93;;;6.47;99.98
55733;BME280;41637;52.364;9.910;2023-04-15T04:09:12;100099.45;;;6.44;100.00
55733;BME280;41637;52.364;9.910;2023-04-15T04:11:39;100100.43;;;6.43;100.00
55733;BME280;41637;52.364;9.910;2023-04-15T04:14:06;100098.98;;;6.41;100.00
55733;BME280;41637;52.364;9.910;2023-04-15T04:16:32;100099.48;;;6.42;100.00
55733;BME280;41637;52.364;9.910;2023-04-15T04:18:59;100100.64;;;6.41;100.00
55733;BME280;41637;52.364;9.910;2023-04-15T04:21:26;100098.80;;;6.40;100.00
55733;BME280;41637;52.364;9.910;2023-04-15T04:23:53;100103.36;;;6.38;100.00
55733;BME280;41637;52.364;9.910;2023-04-15T04:26:20;100103.65;;;6.36;100.00
55733;BME280;41637;52.364;9.910;2023-04-15T04:28:46;100103.61;;;6.31;100.00
55733;BME280;41637;52.364;9.910;2023-04-15T04:31:13;100102.45;;;6.25;100.00
55733;BME280;41637;52.364;9.910;2023-04-15T04:33:40;100099.35;;;6.21;100.00
55733;BME280;41637;52.364;9.910;2023-04-15T04:36:07;100100.42;;;6.18;100.00
55733;BME280;41637;52.364;9.910;2023-04-15T04:38:34;100098.30;;;6.15;100.00
55733;BME280;41637;52.364;9.910;2023-04-15T04:41:00;100098.30;;;6.13;100.00
55733;BME280;41637;52.364;9.910;2023-04-15T04:43:27;100095.52;;;6.09;100.00
55733;BME280;41637;52.364;9.910;2023-04-15T04:45:54;100097.47;;;6.09;100.00
55733;BME280;41637;52.364;9.910;2023-04-15T04:48:21;100095.47;;;6.08;100.00
55733;BME280;41637;52.364;9.910;2023-04-15T04:50:48;100098.71;;;6.07;100.00
55733;BME280;41637;52.364;9.910;2023-04-15T04:53:14;100097.13;;;6.07;100.00
55733;BME280;41637;52.364;9.910;2023-04-15T04:55:41;100100.92;;;6.08;100.00
55733;BME280;41637;52.364;9.910;2023-04-15T04:58:07;100100.27;;;6.09;100.00
55733;BME280;41637;52.364;9.910;2023-04-15T05:00:34;100102.51;;;6.09;100.00
55733;BME280;41637;52.364;9.910;2023-04-15T05:03:03;100103.64;;;6.07;100.00
55733;BME280;41637;52.364;9.910;2023-04-15T05:05:29;100105.30;;;6.08;100.00
55733;BME280;41637;52.364;9.910;2023-04-15T05:07:57;100106.75;;;6.09;100.00
55733;BME280;41637;52.364;9.910;2023-04-15T05:10:23;100106.30;;;6.10;100.00
55733;BME280;41637;52.364;9.910;2023-04-15T05:12:50;100106.33;;;6.10;100.00
55733;BME280;41637;52.364;9.910;2023-04-15T05:15:17;100110.81;;;6.11;100.00
55733;BME280;41637;52.364;9.910;2023-04-15T05:17:44;100109.96;;;6.12;100.00
55733;BME280;41637;52.364;9.910;2023-04-15T05:20:11;100110.91;;;6.13;100.00
55733;BME280;41637;52.364;9.910;2023-04-15T05:22:38;100107.00;;;6.12;100.00
55733;BME280;41637;52.364;9.910;2023-04-15T05:25:05;100108.61;;;6.11;100.00
55733;BME280;41637;52.364;9.910;2023-04-15T05:27:31;100107.21;;;6.11;100.00
55733;BME280;41637;52.364;9.910;2023-04-15T05:29:58;100105.38;;;6.10;100.00
55733;BME280;41637;52.364;9.910;2023-04-15T05:32:25;100106.56;;;6.12;100.00
55733;BME280;41637;52.364;9.910;2023-04-15T05:34:51;100106.28;;;6.14;100.00
55733;BME280;41637;52.364;9.910;2023-04-15T05:37:18;100104.53;;;6.16;100.00
55733;BME280;41637;52.364;9.910;2023-04-15T05:39:47;100103.77;;;6.16;100.00
55733;BME280;41637;52.364;9.910;2023-04-15T05:42:14;100102.36;;;6.18;100.00
55733;BME280;41637;52.364;9.910;2023-04-15T05:44:41;100101.90;;;6.17;100.00
55733;BME280;41637;52.364;9.910;2023-04-15T05:47:08;100099.84;;;6.17;100.00
55733;BME280;41637;52.364;9.910;2023-04-15T05:49:35;100097.86;;;6.18;100.00
55733;BME280;41637;52.364;9.910;2023-04-15T05:52:02;100095.95;;;6.16;100.00
55733;BME280;41637;52.364;9.910;2023-04-15T05:54:28;100097.13;;;6.16;100.00
55733;BME280;41637;52.364;9.910;2023-04-15T05:56:55;100093.64;;;6.16;100.00
55733;BME280;41637;52.364;9.910;2023-04-15T05:59:23;100091.48;;;6.14;100.00
55733;BME280;41637;52.364;9.910;2023-04-15T06:01:49;100091.82;;;6.14;100.00
55733;BME280;41637;52.364;9.910;2023-04-15T06:04:17;100091.17;;;6.16;100.00
55733;BME280;41637;52.364;9.910;2023-04-15T06:06:44;100091.14;;;6.19;100.00
55733;BME280;41637;52.364;9.910;2023-04-15T06:09:11;100091.21;;;6.22;100.00
55733;BME280;41637;52.364;9.910;2023-04-15T06:11:38;100090.01;;;6.25;100.00
55733;BME280;41637;52.364;9.910;2023-04-15T06:14:06;100091.39;;;6.25;100.00
55733;BME280;41637;52.364;9.910;2023-04-15T06:16:33;100088.50;;;6.24;100.00
55733;BME280;41637;52.364;9.910;2023-04-15T06:19:02;100087.58;;;6.25;100.00
55733;BME280;41637;52.364;9.910;2023-04-15T06:21:29;100082.27;;;6.25;100.00
55733;BME280;41637;52.364;9.910;2023-04-15T06:23:58;100087.83;;;6.26;100.00
55733;BME280;41637;52.364;9.910;2023-04-15T06:26:25;100086.78;;;6.27;100.00
55733;BME280;41637;52.364;9.910;2023-04-15T06:28:52;100096.20;;;6.28;100.00
55733;BME280;41637;52.364;9.910;2023-04-15T06:31:19;100098.84;;;6.28;100.00
55733;BME280;41637;52.364;9.910;2023-04-15T06:33:46;100104.17;;;6.27;100.00
55733;BME280;41637;52.364;9.910;2023-04-15T06:36:12;100097.78;;;6.28;100.00
55733;BME280;41637;52.364;9.910;2023-04-15T06:38:39;100100.94;;;6.31;100.00
55733;BME280;41637;52.364;9.910;2023-04-15T06:41:06;100101.44;;;6.33;100.00
55733;BME280;41637;52.364;9.910;2023-04-15T06:43:33;100104.85;;;6.36;100.00
55733;BME280;41637;52.364;9.910;2023-04-15T06:46:00;100105.17;;;6.38;100.00
55733;BME280;41637;52.364;9.910;2023-04-15T06:48:26;100109.14;;;6.40;100.00
55733;BME280;41637;52.364;9.910;2023-04-15T06:50:53;100102.15;;;6.43;100.00
55733;BME280;41637;52.364;9.910;2023-04-15T06:53:20;100099.96;;;6.45;100.00
55733;BME280;41637;52.364;9.910;2023-04-15T06:55:47;100100.60;;;6.48;100.00
55733;BME280;41637;52.364;9.910;2023-04-15T06:58:13;100100.98;;;6.51;100.00
55733;BME280;41637;52.364;9.910;2023-04-15T07:00:40;100103.25;;;6.54;100.00
55733;BME280;41637;52.364;9.910;2023-04-15T07:03:07;100104.80;;;6.58;100.00
55733;BME280;41637;52.364;9.910;2023-04-15T07:05:36;100106.55;;;6.61;100.00
55733;BME280;41637;52.364;9.910;2023-04-15T07:08:04;100109.22;;;6.63;100.00
55733;BME280;41637;52.364;9.910;2023-04-15T07:10:34;100121.75;;;6.67;100.00
55733;BME280;41637;52.364;9.910;2023-04-15T07:13:01;100120.23;;;6.71;100.00
55733;BME280;41637;52.364;9.910;2023-04-15T07:15:27;100119.20;;;6.72;100.00
55733;BME280;41637;52.364;9.910;2023-04-15T07:17:57;100123.52;;;6.75;100.00
55733;BME280;41637;52.364;9.910;2023-04-15T07:20:24;100125.17;;;6.78;100.00
55733;BME280;41637;52.364;9.910;2023-04-15T07:22:51;100121.50;;;6.81;100.00
55733;BME280;41637;52.364;9.910;2023-04-15T07:25:18;100123.05;;;6.83;100.00
55733;BME280;41637;52.364;9.910;2023-04-15T07:27:45;100121.63;;;6.86;100.00
55733;BME280;41637;52.364;9.910;2023-04-15T07:30:12;100125.65;;;6.88;100.00
55733;BME280;41637;52.364;9.910;2023-04-15T07:32:39;100124.95;;;6.91;100.00
55733;BME280;41637;52.364;9.910;2023-04-15T07:35:07;100129.73;;;6.98;100.00
55733;BME280;41637;52.364;9.910;2023-04-15T07:37:35;100128.48;;;7.01;100.00
55733;BME280;41637;52.364;9.910;2023-04-15T07:40:03;100129.80;;;7.05;100.00
55733;BME280;41637;52.364;9.910;2023-04-15T07:42:31;100133.19;;;7.07;100.00
55733;BME280;41637;52.364;9.910;2023-04-15T07:45:00;100135.05;;;7.07;100.00
55733;BME280;41637;52.364;9.910;2023-04-15T07:47:27;100137.46;;;7.12;100.00
55733;BME280;41637;52.364;9.910;2023-04-15T07:49:54;100141.69;;;7.14;100.00
55733;BME280;41637;52.364;9.910;2023-04-15T07:52:24;100144.20;;;7.13;100.00
55733;BME280;41637;52.364;9.910;2023-04-15T07:54:51;100146.46;;;7.15;100.00
55733;BME280;41637;52.364;9.910;2023-04-15T07:57:18;100149.70;;;7.16;100.00
55733;BME280;41637;52.364;9.910;2023-04-15T07:59:45;100153.13;;;7.16;100.00
55733;BME280;41637;52.364;9.910;2023-04-15T08:02:12;100149.56;;;7.16;100.00
55733;BME280;41637;52.364;9.910;2023-04-15T08:04:47;100152.44;;;7.15;100.00
55733;BME280;41637;52.364;9.910;2023-04-15T08:07:14;100153.59;;;7.16;100.00
55733;BME280;41637;52.364;9.910;2023-04-15T08:09:44;100154.55;;;7.15;100.00
55733;BME280;41637;52.364;9.910;2023-04-15T08:12:11;100153.36;;;7.15;100.00
55733;BME280;41637;52.364;9.910;2023-04-15T08:14:39;100157.60;;;7.18;100.00
55733;BME280;41637;52.364;9.910;2023-04-15T08:17:13;100155.33;;;7.21;100.00
55733;BME280;41637;52.364;9.910;2023-04-15T08:19:43;100159.81;;;7.22;100.00
55733;BME280;41637;52.364;9.910;2023-04-15T08:22:09;100162.09;;;7.22;100.00
55733;BME280;41637;52.364;9.910;2023-04-15T08:24:44;100164.64;;;7.24;100.00
55733;BME280;41637;52.364;9.910;2023-04-15T08:27:12;100165.09;;;7.27;100.00
55733;BME280;41637;52.364;9.910;2023-04-15T08:29:39;100159.34;;;7.31;100.00
55733;BME280;41637;52.364;9.910;2023-04-15T08:32:12;100162.27;;;7.39;100.00
55733;BME280;41637;52.364;9.910;2023-04-15T08:34:38;100162.14;;;7.41;100.00
55733;BME280;41637;52.364;9.910;2023-04-15T08:37:05;100161.63;;;7.43;100.00
55733;BME280;41637;52.364;9.910;2023-04-15T08:39:35;100167.05;;;7.43;100.00
55733;BME280;41637;52.364;9.910;2023-04-15T08:42:02;100170.52;;;7.43;100.00
55733;BME280;41637;52.364;9.910;2023-04-15T08:44:35;100168.23;;;7.44;100.00
55733;BME280;41637;52.364;9.910;2023-04-15T08:47:07;100159.02;;;7.44;100.00
55733;BME280;41637;52.364;9.910;2023-04-15T08:49:38;100153.84;;;7.46;100.00
55733;BME280;41637;52.364;9.910;2023-04-15T08:52:06;100157.20;;;7.49;100.00
55733;BME280;41637;52.364;9.910;2023-04-15T08:54:35;100161.79;;;7.52;100.00
55733;BME280;41637;52.364;9.910;2023-04-15T08:57:02;100158.25;;;7.56;100.00
55733;BME280;41637;52.364;9.910;2023-04-15T08:59:29;100156.91;;;7.60;100.00
55733;BME280;41637;52.364;9.910;2023-04-15T09:01:57;100156.31;;;7.65;100.00
55733;BME280;41637;52.364;9.910;2023-04-15T09:04:25;100160.91;;;7.71;100.00
55733;BME280;41637;52.364;9.910;2023-04-15T09:06:53;100161.56;;;7.77;100.00
55733;BME280;41637;52.364;9.910;2023-04-15T09:09:20;100167.48;;;7.83;100.00
55733;BME280;41637;52.364;9.910;2023-04-15T09:11:49;100170.64;;;7.86;100.00
55733;BME280;41637;52.364;9.910;2023-04-15T09:14:17;100175.98;;;7.90;100.00
55733;BME280;41637;52.364;9.910;2023-04-15T09:17:19;100182.74;;;7.92;100.00
55733;BME280;41637;52.364;9.910;2023-04-15T09:20:07;100187.67;;;7.95;100.00
55733;BME280;41637;52.364;9.910;2023-04-15T09:22:35;100190.22;;;7.96;100.00
55733;BME280;41637;52.364;9.910;2023-04-15T09:25:03;100191.05;;;7.92;100.00
55733;BME280;41637;52.364;9.910;2023-04-15T09:27:49;100198.42;;;7.91;100.00
55733;BME280;41637;52.364;9.910;2023-04-15T09:30:16;100196.23;;;7.90;100.00
55733;BME280;41637;52.364;9.910;2023-04-15T09:32:56;100202.92;;;7.88;100.00
55733;BME280;41637;52.364;9.910;2023-04-15T09:35:24;100207.07;;;7.90;100.00
55733;BME280;41637;52.364;9.910;2023-04-15T09:37:52;100207.77;;;7.94;100.00
55733;BME280;41637;52.364;9.910;2023-04-15T09:40:39;100213.10;;;7.96;100.00
55733;BME280;41637;52.364;9.910;2023-04-15T09:43:08;100219.03;;;7.99;100.00
55733;BME280;41637;52.364;9.910;2023-04-15T09:45:35;100216.07;;;7.98;100.00
55733;BME280;41637;52.364;9.910;2023-04-15T09:48:20;100219.27;;;8.00;100.00
55733;BME280;41637;52.364;9.910;2023-04-15T09:50:48;100213.47;;;8.03;100.00
55733;BME280;41637;52.364;9.910;2023-04-15T09:53:18;100210.73;;;8.07;100.00
55733;BME280;41637;52.364;9.910;2023-04-15T09:58:20;100209.55;;;8.21;100.00
55733;BME280;41637;52.364;9.910;2023-04-15T10:00:48;100209.83;;;8.26;100.00
55733;BME280;41637;52.364;9.910;2023-04-15T10:03:24;100210.00;;;8.29;100.00
55733;BME280;41637;52.364;9.910;2023-04-15T10:05:53;100212.80;;;8.32;100.00
55733;BME280;41637;52.364;9.910;2023-04-15T10:08:29;100217.08;;;8.35;100.00
55733;BME280;41637;52.364;9.910;2023-04-15T10:10:56;100224.60;;;8.37;100.00
55733;BME280;41637;52.364;9.910;2023-04-15T10:13:25;100225.77;;;8.41;100.00
55733;BME280;41637;52.364;9.910;2023-04-15T10:15:56;100228.52;;;8.45;100.00
55733;BME280;41637;52.364;9.910;2023-04-15T10:18:25;100225.95;;;8.46;100.00
55733;BME280;41637;52.364;9.910;2023-04-15T10:21:02;100220.04;;;8.50;100.00
55733;BME280;41637;52.364;9.910;2023-04-15T10:23:31;100224.41;;;8.52;100.00
55733;BME280;41637;52.364;9.910;2023-04-15T10:25:59;100226.83;;;8.53;100.00
55733;BME280;41637;52.364;9.910;2023-04-15T10:28:27;100226.48;;;8.53;100.00
55733;BME280;41637;52.364;9.910;2023-04-15T10:30:54;100225.87;;;8.54;100.00
55733;BME280;41637;52.364;9.910;2023-04-15T10:33:22;100221.00;;;8.59;100.00
55733;BME280;41637;52.364;9.910;2023-04-15T10:35:50;100226.88;;;8.64;100.00
55733;BME280;41637;52.364;9.910;2023-04-15T10:38:38;100225.55;;;8.65;100.00
55733;BME280;41637;52.364;9.910;2023-04-15T10:41:23;100222.73;;;8.71;100.00
55733;BME280;41637;52.364;9.910;2023-04-15T10:44:02;100218.86;;;8.79;100.00
55733;BME280;41637;52.364;9.910;2023-04-15T10:46:38;100223.71;;;8.80;100.00
55733;BME280;41637;52.364;9.910;2023-04-15T10:49:32;100222.27;;;8.80;100.00
55733;BME280;41637;52.364;9.910;2023-04-15T10:52:02;100220.54;;;8.86;100.00
55733;BME280;41637;52.364;9.910;2023-04-15T10:54:32;100221.77;;;8.91;100.00
55733;BME280;41637;52.364;9.910;2023-04-15T10:59:30;100223.73;;;9.06;100.00
55733;BME280;41637;52.364;9.910;2023-04-15T11:02:02;100227.08;;;9.12;100.00
55733;BME280;41637;52.364;9.910;2023-04-15T11:04:54;100232.31;;;9.22;100.00
55733;BME280;41637;52.364;9.910;2023-04-15T11:12:58;100236.86;;;9.32;100.00
55733;BME280;41637;52.364;9.910;2023-04-15T11:15:33;100240.55;;;9.33;100.00
55733;BME280;41637;52.364;9.910;2023-04-15T11:20:48;100247.20;;;9.50;100.00
55733;BME280;41637;52.364;9.910;2023-04-15T11:23:29;100248.09;;;9.52;100.00
55733;BME280;41637;52.364;9.910;2023-04-15T11:25:58;100247.95;;;9.53;100.00
55733;BME280;41637;52.364;9.910;2023-04-15T11:28:27;100247.14;;;9.58;100.00
55733;BME280;41637;52.364;9.910;2023-04-15T11:30:54;100250.15;;;9.60;100.00
55733;BME280;41637;52.364;9.910;2023-04-15T11:33:22;100251.62;;;9.61;100.00
55733;BME280;41637;52.364;9.910;2023-04-15T11:35:51;100257.73;;;9.61;100.00
55733;BME280;41637;52.364;9.910;2023-04-15T11:38:20;100264.38;;;9.59;100.00
55733;BME280;41637;52.364;9.910;2023-04-15T11:40:49;100265.27;;;9.60;100.00
55733;BME280;41637;52.364;9.910;2023-04-15T11:43:21;100270.09;;;9.61;100.00
55733;BME280;41637;52.364;9.910;2023-04-15T11:45:59;100270.35;;;9.60;100.00
55733;BME280;41637;52.364;9.910;2023-04-15T11:48:34;100271.20;;;9.58;100.00
55733;BME280;41637;52.364;9.910;2023-04-15T11:51:06;100282.30;;;9.61;100.00
55733;BME280;41637;52.364;9.910;2023-04-15T11:53:43;100282.96;;;9.64;100.00
55733;BME280;41637;52.364;9.910;2023-04-15T11:56:25;100292.20;;;9.67;100.00
55733;BME280;41637;52.364;9.910;2023-04-15T11:58:56;100294.87;;;9.71;100.00
55733;BME280;41637;52.364;9.910;2023-04-15T12:01:36;100292.09;;;9.71;100.00
55733;BME280;41637;52.364;9.910;2023-04-15T12:04:12;100294.41;;;9.74;100.00
55733;BME280;41637;52.364;9.910;2023-04-15T12:06:39;100294.83;;;9.77;100.00
55733;BME280;41637;52.364;9.910;2023-04-15T12:09:10;100293.41;;;9.78;100.00
55733;BME280;41637;52.364;9.910;2023-04-15T12:14:23;100301.02;;;9.79;100.00
55733;BME280;41637;52.364;9.910;2023-04-15T12:16:52;100303.89;;;9.84;100.00
55733;BME280;41637;52.364;9.910;2023-04-15T12:19:25;100306.30;;;9.81;100.00
55733;BME280;41637;52.364;9.910;2023-04-15T12:22:03;100307.89;;;9.81;100.00
55733;BME280;41637;52.364;9.910;2023-04-15T12:24:35;100315.02;;;9.84;100.00
55733;BME280;41637;52.364;9.910;2023-04-15T12:27:07;100320.10;;;9.84;100.00
55733;BME280;41637;52.364;9.910;2023-04-15T12:29:36;100322.55;;;9.86;100.00
55733;BME280;41637;52.364;9.910;2023-04-15T12:32:10;100324.40;;;9.86;100.00
55733;BME280;41637;52.364;9.910;2023-04-15T12:34:38;100327.23;;;9.82;100.00
55733;BME280;41637;52.364;9.910;2023-04-15T12:37:07;100329.96;;;9.78;100.00
55733;BME280;41637;52.364;9.910;2023-04-15T12:39:40;100331.56;;;9.73;100.00
55733;BME280;41637;52.364;9.910;2023-04-15T12:42:08;100329.99;;;9.71;100.00
55733;BME280;41637;52.364;9.910;2023-04-15T12:44:36;100336.70;;;9.73;100.00
55733;BME280;41637;52.364;9.910;2023-04-15T12:47:04;100334.43;;;9.74;100.00
55733;BME280;41637;52.364;9.910;2023-04-15T12:49:31;100340.94;;;9.76;100.00
55733;BME280;41637;52.364;9.910;2023-04-15T12:52:00;100344.02;;;9.83;100.00
55733;BME280;41637;52.364;9.910;2023-04-15T12:54:37;100349.21;;;9.92;100.00
55733;BME280;41637;52.364;9.910;2023-04-15T12:57:04;100352.50;;;10.00;100.00
55733;BME280;41637;52.364;9.910;2023-04-15T12:59:34;100354.16;;;10.04;100.00
55733;BME280;41637;52.364;9.910;2023-04-15T13:02:01;100356.37;;;10.10;100.00
55733;BME280;41637;52.364;9.910;2023-04-15T13:04:28;100361.05;;;10.16;100.00
55733;BME280;41637;52.364;9.910;2023-04-15T13:06:58;100363.59;;;10.13;100.00
55733;BME280;41637;52.364;9.910;2023-04-15T13:09:25;100368.31;;;10.12;100.00
55733;BME280;41637;52.364;9.910;2023-04-15T13:11:52;100367.40;;;10.16;100.00
55733;BME280;41637;52.364;9.910;2023-04-15T13:14:20;100367.31;;;10.19;100.00
55733;BME280;41637;52.364;9.910;2023-04-15T13:16:46;100368.48;;;10.36;100.00
55733;BME280;41637;52.364;9.910;2023-04-15T13:19:13;100371.55;;;10.55;100.00
55733;BME280;41637;52.364;9.910;2023-04-15T13:21:41;100370.58;;;10.77;100.00
55733;BME280;41637;52.364;9.910;2023-04-15T13:24:08;100367.81;;;10.97;99.72
55733;BME280;41637;52.364;9.910;2023-04-15T13:26:35;100371.98;;;11.16;100.00
55733;BME280;41637;52.364;9.910;2023-04-15T13:29:02;100371.89;;;11.28;98.91
55733;BME280;41637;52.364;9.910;2023-04-15T13:31:32;100369.41;;;11.38;97.44
55733;BME280;41637;52.364;9.910;2023-04-15T13:33:59;100370.71;;;11.57;97.25
55733;BME280;41637;52.364;9.910;2023-04-15T13:36:26;100369.16;;;11.79;97.48
55733;BME280;41637;52.364;9.910;2023-04-15T13:38:53;100374.09;;;12.07;95.86
55733;BME280;41637;52.364;9.910;2023-04-15T13:41:20;100372.13;;;12.35;94.85
55733;BME280;41637;52.364;9.910;2023-04-15T13:43:47;100372.25;;;12.54;91.68
55733;BME280;41637;52.364;9.910;2023-04-15T13:46:14;100375.69;;;12.68;90.75
55733;BME280;41637;52.364;9.910;2023-04-15T13:48:41;100374.59;;;13.06;90.32
55733;BME280;41637;52.364;9.910;2023-04-15T13:51:08;100379.41;;;13.74;88.17
55733;BME280;41637;52.364;9.910;2023-04-15T13:53:34;100378.98;;;14.24;84.06
55733;BME280;41637;52.364;9.910;2023-04-15T13:56:08;100383.90;;;14.64;83.12
55733;BME280;41637;52.364;9.910;2023-04-15T13:58:36;100385.48;;;14.75;80.54
55733;BME280;41637;52.364;9.910;2023-04-15T14:01:03;100388.02;;;14.78;80.22
55733;BME280;41637;52.364;9.910;2023-04-15T14:03:34;100388.70;;;14.85;79.05
55733;BME280;41637;52.364;9.910;2023-04-15T14:06:02;100389.48;;;14.83;77.09
55733;BME280;41637;52.364;9.910;2023-04-15T14:08:28;100390.21;;;15.15;76.73
55733;BME280;41637;52.364;9.910;2023-04-15T14:10:55;100388.14;;;15.36;75.99
55733;BME280;41637;52.364;9.910;2023-04-15T14:13:23;100388.48;;;15.75;74.24
55733;BME280;41637;52.364;9.910;2023-04-15T14:15:50;100388.67;;;15.99;72.33
55733;BME280;41637;52.364;9.910;2023-04-15T14:20:52;100393.41;;;16.45;69.83